sensor_id;sensor_type;location;lat;lon;timestamp;temperature;humidity
52531;DHT22;38441;52.894;6.040;2022-09-12T00:00:05;15.20;99.90
52531;DHT22;38441;52.894;6.040;2022-09-12T00:04:57;15.30;99.90
52531;DHT22;38441;52.894;6.040;2022-09-12T00:24:27;15.10;99.90
52531;DHT22;38441;52.894;6.040;2022-09-12T00:26:53;15.00;99.90
52531;DHT22;38441;52.894;6.040;2022-09-12T00:29:20;14.90;99.90
52531;DHT22;38441;52.894;6.040;2022-09-12T00:36:38;15.20;99.90
52531;DHT22;38441;52.894;6.040;2022-09-12T00:41:36;15.10;99.90
52531;DHT22;38441;52.894;6.040;2022-09-12T00:44:39;14.70;99.90
52531;DHT22;38441;52.894;6.040;2022-09-12T00:47:17;14.90;99.90
52531;DHT22;38441;52.894;6.040;2022-09-12T00:50:06;14.60;99.90
52531;DHT22;38441;52.894;6.040;2022-09-12T00:52:47;14.90;99.90
52531;DHT22;38441;52.894;6.040;2022-09-12T00:58:27;14.70;99.90
52531;DHT22;38441;52.894;6.040;2022-09-12T01:00:55;14.70;99.90
52531;DHT22;38441;52.894;6.040;2022-09-12T01:06:20;14.80;99.90
52531;DHT22;38441;52.894;6.040;2022-09-12T01:11:14;14.70;99.90
52531;DHT22;38441;52.894;6.040;2022-09-12T01:13:43;14.50;99.90
52531;DHT22;38441;52.894;6.040;2022-09-12T01:32:47;14.40;99.90
52531;DHT22;38441;52.894;6.040;2022-09-12T01:38:22;14.40;99.90
52531;DHT22;38441;52.894;6.040;2022-09-12T01:41:01;14.50;99.90
52531;DHT22;38441;52.894;6.040;2022-09-12T01:43:51;14.50;99.90
52531;DHT22;38441;52.894;6.040;2022-09-12T01:46:29;14.30;99.90
52531;DHT22;38441;52.894;6.040;2022-09-12T01:49:06;14.40;99.90
52531;DHT22;38441;52.894;6.040;2022-09-12T01:52:02;14.30;99.90
52531;DHT22;38441;52.894;6.040;2022-09-12T01:54:46;14.10;99.90
52531;DHT22;38441;52.894;6.040;2022-09-12T01:57:24;14.30;99.90
52531;DHT22;38441;52.894;6.040;2022-09-12T01:59:56;14.30;99.90
52531;DHT22;38441;52.894;6.040;2022-09-12T02:07:46;14.00;99.90
52531;DHT22;38441;52.894;6.040;2022-09-12T02:10:18;14.30;99.90
52531;DHT22;38441;52.894;6.040;2022-09-12T02:13:10;14.20;99.90
52531;DHT22;38441;52.894;6.040;2022-09-12T02:15:42;14.10;99.90
52531;DHT22;38441;52.894;6.040;2022-09-12T02:18:12;14.30;99.90
52531;DHT22;38441;52.894;6.040;2022-09-12T02:20:41;14.10;99.90
52531;DHT22;38441;52.894;6.040;2022-09-12T02:23:11;14.10;99.90
52531;DHT22;38441;52.894;6.040;2022-09-12T02:25:41;14.10;99.90
52531;DHT22;38441;52.894;6.040;2022-09-12T02:28:19;14.20;99.90
52531;DHT22;38441;52.894;6.040;2022-09-12T02:34:02;14.40;99.90
52531;DHT22;38441;52.894;6.040;2022-09-12T02:36:54;14.20;99.90
52531;DHT22;38441;52.894;6.040;2022-09-12T02:41:51;14.10;99.90
52531;DHT22;38441;52.894;6.040;2022-09-12T02:46:50;14.20;99.90
52531;DHT22;38441;52.894;6.040;2022-09-12T02:51:44;14.30;99.90
52531;DHT22;38441;52.894;6.040;2022-09-12T02:54:11;14.20;99.90
52531;DHT22;38441;52.894;6.040;2022-09-12T02:56:43;14.10;99.90
52531;DHT22;38441;52.894;6.040;2022-09-12T02:59:13;14.10;99.90
52531;DHT22;38441;52.894;6.040;2022-09-12T03:02:23;14.20;99.90
52531;DHT22;38441;52.894;6.040;2022-09-12T03:09:50;14.30;99.90
52531;DHT22;38441;52.894;6.040;2022-09-12T03:17:54;14.10;99.90
52531;DHT22;38441;52.894;6.040;2022-09-12T03:20:36;14.20;99.90
52531;DHT22;38441;52.894;6.040;2022-09-12T03:23:14;14.20;99.90
52531;DHT22;38441;52.894;6.040;2022-09-12T03:25:48;14.00;99.90
52531;DHT22;38441;52.894;6.040;2022-09-12T03:28:18;13.90;99.90
52531;DHT22;38441;52.894;6.040;2022-09-12T03:30:46;14.10;99.90
52531;DHT22;38441;52.894;6.040;2022-09-12T03:33:15;14.10;99.90
52531;DHT22;38441;52.894;6.040;2022-09-12T03:40:34;14.10;99.90
52531;DHT22;38441;52.894;6.040;2022-09-12T04:00:07;14.00;99.90
52531;DHT22;38441;52.894;6.040;2022-09-12T04:12:18;14.00;99.90
52531;DHT22;38441;52.894;6.040;2022-09-12T04:41:37;14.00;99.90
52531;DHT22;38441;52.894;6.040;2022-09-12T04:44:05;14.10;99.90
52531;DHT22;38441;52.894;6.040;2022-09-12T04:46:34;14.00;99.90
52531;DHT22;38441;52.894;6.040;2022-09-12T04:51:29;14.10;99.90
52531;DHT22;38441;52.894;6.040;2022-09-12T04:53:58;14.10;99.90
52531;DHT22;38441;52.894;6.040;2022-09-12T05:01:21;14.00;99.90
52531;DHT22;38441;52.894;6.040;2022-09-12T05:03:48;14.20;99.90
52531;DHT22;38441;52.894;6.040;2022-09-12T05:06:17;14.00;99.90
52531;DHT22;38441;52.894;6.040;2022-09-12T05:11:11;14.10;99.90
52531;DHT22;38441;52.894;6.040;2022-09-12T05:16:04;14.00;99.90
52531;DHT22;38441;52.894;6.040;2022-09-12T05:18:34;14.00;99.90
52531;DHT22;38441;52.894;6.040;2022-09-12T05:21:02;14.20;99.90
52531;DHT22;38441;52.894;6.040;2022-09-12T05:23:29;14.20;99.90
52531;DHT22;38441;52.894;6.040;2022-09-12T05:25:56;14.30;99.90
52531;DHT22;38441;52.894;6.040;2022-09-12T05:28:23;14.10;99.90
52531;DHT22;38441;52.894;6.040;2022-09-12T05:31:04;14.40;99.90
52531;DHT22;38441;52.894;6.040;2022-09-12T05:33:33;14.20;99.90
52531;DHT22;38441;52.894;6.040;2022-09-12T05:41:07;14.30;99.90
52531;DHT22;38441;52.894;6.040;2022-09-12T05:43:35;14.30;99.90
52531;DHT22;38441;52.894;6.040;2022-09-12T05:46:03;14.20;99.90
52531;DHT22;38441;52.894;6.040;2022-09-12T05:51:05;14.30;99.90
52531;DHT22;38441;52.894;6.040;2022-09-12T05:53:34;14.20;99.90
52531;DHT22;38441;52.894;6.040;2022-09-12T05:56:08;14.20;99.90
52531;DHT22;38441;52.894;6.040;2022-09-12T05:58:36;14.20;99.90
52531;DHT22;38441;52.894;6.040;2022-09-12T06:01:07;14.20;99.90
52531;DHT22;38441;52.894;6.040;2022-09-12T06:03:35;14.20;99.90
52531;DHT22;38441;52.894;6.040;2022-09-12T11:14:23;22.00;99.90
52531;DHT22;38441;52.894;6.040;2022-09-12T11:17:07;22.30;99.90
52531;DHT22;38441;52.894;6.040;2022-09-12T12:40:20;23.30;99.90
52531;DHT22;38441;52.894;6.040;2022-09-12T12:48:01;23.40;99.90
52531;DHT22;38441;52.894;6.040;2022-09-12T12:50:33;23.60;99.90
52531;DHT22;38441;52.894;6.040;2022-09-12T12:53:05;23.70;99.90
52531;DHT22;38441;52.894;6.040;2022-09-12T12:55:37;24.00;99.90
52531;DHT22;38441;52.894;6.040;2022-09-12T13:03:30;23.80;99.90
52531;DHT22;38441;52.894;6.040;2022-09-12T13:06:20;25.30;99.90
52531;DHT22;38441;52.894;6.040;2022-09-12T13:08:56;24.90;99.90
52531;DHT22;38441;52.894;6.040;2022-09-12T13:11:33;24.10;99.90
52531;DHT22;38441;52.894;6.040;2022-09-12T13:14:02;23.90;99.90
52531;DHT22;38441;52.894;6.040;2022-09-12T13:16:33;23.90;99.90
52531;DHT22;38441;52.894;6.040;2022-09-12T13:19:18;24.20;99.90
52531;DHT22;38441;52.894;6.040;2022-09-12T13:22:00;23.00;99.90
52531;DHT22;38441;52.894;6.040;2022-09-12T13:24:26;25.50;99.90
52531;DHT22;38441;52.894;6.040;2022-09-12T13:26:51;24.10;99.90
52531;DHT22;38441;52.894;6.040;2022-09-12T13:29:18;24.10;99.90
52531;DHT22;38441;52.894;6.040;2022-09-12T13:31:47;24.30;99.90
52531;DHT22;38441;52.894;6.040;2022-09-12T13:34:26;24.30;99.90
52531;DHT22;38441;52.894;6.040;2022-09-12T13:37:14;24.60;99.90
52531;DHT22;38441;52.894;6.040;2022-09-12T13:42:47;24.30;99.90
52531;DHT22;38441;52.894;6.040;2022-09-12T13:45:44;24.00;99.90
52531;DHT22;38441;52.894;6.040;2022-09-12T13:48:24;25.90;99.90
52531;DHT22;38441;52.894;6.040;2022-09-12T15:17:04;23.20;99.90
52531;DHT22;38441;52.894;6.040;2022-09-12T15:19:30;23.50;99.90
52531;DHT22;38441;52.894;6.040;2022-09-12T15:21:56;24.30;99.90
52531;DHT22;38441;52.894;6.040;2022-09-12T15:24:25;23.00;99.90
52531;DHT22;38441;52.894;6.040;2022-09-12T15:26:51;23.10;99.90
52531;DHT22;38441;52.894;6.040;2022-09-12T15:29:18;23.10;99.90
52531;DHT22;38441;52.894;6.040;2022-09-12T15:31:46;24.00;99.90
52531;DHT22;38441;52.894;6.040;2022-09-12T15:34:12;22.80;99.90
52531;DHT22;38441;52.894;6.040;2022-09-12T15:36:38;23.40;99.90
52531;DHT22;38441;52.894;6.040;2022-09-12T15:39:04;22.90;99.90
52531;DHT22;38441;52.894;6.040;2022-09-12T15:41:32;23.70;99.90
52531;DHT22;38441;52.894;6.040;2022-09-12T15:44:00;21.90;99.90
52531;DHT22;38441;52.894;6.040;2022-09-12T15:46:28;23.20;99.90
52531;DHT22;38441;52.894;6.040;2022-09-12T15:48:54;22.70;99.90
52531;DHT22;38441;52.894;6.040;2022-09-12T15:51:20;23.50;99.90
52531;DHT22;38441;52.894;6.040;2022-09-12T15:53:47;23.60;99.90
52531;DHT22;38441;52.894;6.040;2022-09-12T15:56:18;22.90;99.90
52531;DHT22;38441;52.894;6.040;2022-09-12T15:58:44;22.40;99.90
52531;DHT22;38441;52.894;6.040;2022-09-12T16:01:16;22.70;99.90
52531;DHT22;38441;52.894;6.040;2022-09-12T16:06:31;22.70;99.90
52531;DHT22;38441;52.894;6.040;2022-09-12T16:08:58;24.30;99.90
52531;DHT22;38441;52.894;6.040;2022-09-12T16:11:25;23.00;99.90
52531;DHT22;38441;52.894;6.040;2022-09-12T16:13:57;22.70;99.90
52531;DHT22;38441;52.894;6.040;2022-09-12T16:16:23;22.00;99.90
52531;DHT22;38441;52.894;6.040;2022-09-12T16:18:49;22.80;99.90
52531;DHT22;38441;52.894;6.040;2022-09-12T16:21:18;22.40;99.90
52531;DHT22;38441;52.894;6.040;2022-09-12T16:23:47;24.30;99.90
52531;DHT22;38441;52.894;6.040;2022-09-12T16:26:21;21.40;99.90
52531;DHT22;38441;52.894;6.040;2022-09-12T16:28:58;22.60;99.90
52531;DHT22;38441;52.894;6.040;2022-09-12T16:31:25;22.50;99.90
52531;DHT22;38441;52.894;6.040;2022-09-12T16:33:54;22.60;99.90
52531;DHT22;38441;52.894;6.040;2022-09-12T16:36:22;22.50;99.90
52531;DHT22;38441;52.894;6.040;2022-09-12T16:38:51;22.30;99.90
52531;DHT22;38441;52.894;6.040;2022-09-12T16:41:29;22.40;99.90
52531;DHT22;38441;52.894;6.040;2022-09-12T16:44:01;24.00;99.90
52531;DHT22;38441;52.894;6.040;2022-09-12T16:46:46;22.20;99.90
52531;DHT22;38441;52.894;6.040;2022-09-12T19:34:11;19.60;99.90
52531;DHT22;38441;52.894;6.040;2022-09-12T19:36:38;21.60;99.90
52531;DHT22;38441;52.894;6.040;2022-09-12T19:39:05;22.20;99.90
52531;DHT22;38441;52.894;6.040;2022-09-12T19:41:31;21.10;99.90
52531;DHT22;38441;52.894;6.040;2022-09-12T19:43:57;21.60;99.90
52531;DHT22;38441;52.894;6.040;2022-09-12T19:46:24;20.60;99.90
52531;DHT22;38441;52.894;6.040;2022-09-12T19:48:50;19.30;99.90
52531;DHT22;38441;52.894;6.040;2022-09-12T19:51:18;19.40;99.90
52531;DHT22;38441;52.894;6.040;2022-09-12T19:53:44;21.50;99.90
52531;DHT22;38441;52.894;6.040;2022-09-12T19:56:11;20.60;99.90
52531;DHT22;38441;52.894;6.040;2022-09-12T19:58:39;21.10;99.90
52531;DHT22;38441;52.894;6.040;2022-09-12T20:01:12;21.10;99.90
52531;DHT22;38441;52.894;6.040;2022-09-12T20:03:38;20.20;99.90
52531;DHT22;38441;52.894;6.040;2022-09-12T20:06:06;21.10;99.90
52531;DHT22;38441;52.894;6.040;2022-09-12T20:08:32;19.40;99.90
52531;DHT22;38441;52.894;6.040;2022-09-12T20:10:58;21.30;99.90
52531;DHT22;38441;52.894;6.040;2022-09-12T20:13:26;21.40;99.90
52531;DHT22;38441;52.894;6.040;2022-09-12T20:15:52;20.80;99.90
52531;DHT22;38441;52.894;6.040;2022-09-12T20:18:17;20.40;99.90
52531;DHT22;38441;52.894;6.040;2022-09-12T20:20:43;21.70;99.90
52531;DHT22;38441;52.894;6.040;2022-09-12T20:23:11;20.90;99.90
52531;DHT22;38441;52.894;6.040;2022-09-12T20:25:36;20.20;99.90
52531;DHT22;38441;52.894;6.040;2022-09-12T20:28:02;20.40;99.90
52531;DHT22;38441;52.894;6.040;2022-09-12T20:30:28;21.30;99.90
52531;DHT22;38441;52.894;6.040;2022-09-12T20:32:53;20.80;99.90
52531;DHT22;38441;52.894;6.040;2022-09-12T20:35:19;20.60;99.90
52531;DHT22;38441;52.894;6.040;2022-09-12T20:37:45;20.30;99.90
52531;DHT22;38441;52.894;6.040;2022-09-12T20:40:10;21.10;99.90
52531;DHT22;38441;52.894;6.040;2022-09-12T20:42:36;21.20;99.90
52531;DHT22;38441;52.894;6.040;2022-09-12T20:45:03;21.60;99.90
52531;DHT22;38441;52.894;6.040;2022-09-12T20:47:28;19.40;99.90
52531;DHT22;38441;52.894;6.040;2022-09-12T20:49:54;21.00;99.90
52531;DHT22;38441;52.894;6.040;2022-09-12T20:52:20;20.30;99.90
52531;DHT22;38441;52.894;6.040;2022-09-12T20:54:45;21.20;99.90
52531;DHT22;38441;52.894;6.040;2022-09-12T20:57:11;20.00;99.90
52531;DHT22;38441;52.894;6.040;2022-09-12T20:59:37;19.90;99.90
52531;DHT22;38441;52.894;6.040;2022-09-12T21:02:08;21.10;99.90
52531;DHT22;38441;52.894;6.040;2022-09-12T21:04:34;20.20;99.90
52531;DHT22;38441;52.894;6.040;2022-09-12T21:07:00;20.50;99.90
52531;DHT22;38441;52.894;6.040;2022-09-12T21:09:25;21.20;99.90
52531;DHT22;38441;52.894;6.040;2022-09-12T21:11:51;21.30;99.90
52531;DHT22;38441;52.894;6.040;2022-09-12T21:14:16;21.20;99.90
52531;DHT22;38441;52.894;6.040;2022-09-12T21:16:42;21.60;99.90
52531;DHT22;38441;52.894;6.040;2022-09-12T21:19:08;20.10;99.90
52531;DHT22;38441;52.894;6.040;2022-09-12T21:21:33;19.70;99.90
52531;DHT22;38441;52.894;6.040;2022-09-12T21:24:00;20.10;99.90
52531;DHT22;38441;52.894;6.040;2022-09-12T21:26:29;19.30;99.90
52531;DHT22;38441;52.894;6.040;2022-09-12T21:28:55;20.00;99.90
52531;DHT22;38441;52.894;6.040;2022-09-12T21:31:22;19.20;99.90
52531;DHT22;38441;52.894;6.040;2022-09-12T21:33:47;18.90;99.90
52531;DHT22;38441;52.894;6.040;2022-09-12T21:36:13;21.50;99.90
52531;DHT22;38441;52.894;6.040;2022-09-12T21:38:39;19.30;99.90
52531;DHT22;38441;52.894;6.040;2022-09-12T21:41:10;20.40;99.90
52531;DHT22;38441;52.894;6.040;2022-09-12T21:43:36;19.00;99.90
52531;DHT22;38441;52.894;6.040;2022-09-12T21:46:03;21.00;99.90
52531;DHT22;38441;52.894;6.040;2022-09-12T21:48:29;20.30;99.90
52531;DHT22;38441;52.894;6.040;2022-09-12T21:50:55;21.60;99.90
52531;DHT22;38441;52.894;6.040;2022-09-12T21:53:21;20.80;99.90
52531;DHT22;38441;52.894;6.040;2022-09-12T21:55:47;20.30;99.90
52531;DHT22;38441;52.894;6.040;2022-09-12T21:58:13;21.60;99.90
52531;DHT22;38441;52.894;6.040;2022-09-12T22:00:39;19.10;99.90
52531;DHT22;38441;52.894;6.040;2022-09-12T22:03:05;19.00;99.90
52531;DHT22;38441;52.894;6.040;2022-09-12T22:05:31;20.20;99.90
52531;DHT22;38441;52.894;6.040;2022-09-12T22:07:58;19.40;99.90
52531;DHT22;38441;52.894;6.040;2022-09-12T22:10:25;21.00;99.90
52531;DHT22;38441;52.894;6.040;2022-09-12T22:12:51;18.80;99.90
52531;DHT22;38441;52.894;6.040;2022-09-12T22:15:17;18.50;99.90
52531;DHT22;38441;52.894;6.040;2022-09-12T22:17:43;22.10;99.90
52531;DHT22;38441;52.894;6.040;2022-09-12T22:20:09;19.90;99.90
52531;DHT22;38441;52.894;6.040;2022-09-12T22:22:36;20.60;99.90
52531;DHT22;38441;52.894;6.040;2022-09-12T22:25:21;20.10;99.90
52531;DHT22;38441;52.894;6.040;2022-09-12T22:27:52;20.20;99.90
52531;DHT22;38441;52.894;6.040;2022-09-12T22:30:19;19.90;99.90
52531;DHT22;38441;52.894;6.040;2022-09-12T22:32:48;19.30;99.90
52531;DHT22;38441;52.894;6.040;2022-09-12T22:35:16;19.90;99.90
52531;DHT22;38441;52.894;6.040;2022-09-12T22:37:42;19.10;99.90
52531;DHT22;38441;52.894;6.040;2022-09-12T22:40:09;19.70;99.90
52531;DHT22;38441;52.894;6.040;2022-09-12T22:42:37;18.70;99.90
52531;DHT22;38441;52.894;6.040;2022-09-12T22:45:04;20.80;99.90
52531;DHT22;38441;52.894;6.040;2022-09-12T22:47:30;18.90;99.90
52531;DHT22;38441;52.894;6.040;2022-09-12T22:49:56;19.10;99.90
52531;DHT22;38441;52.894;6.040;2022-09-12T22:52:21;20.20;99.90
52531;DHT22;38441;52.894;6.040;2022-09-12T22:54:49;19.20;99.90
52531;DHT22;38441;52.894;6.040;2022-09-12T22:57:14;20.00;99.90
52531;DHT22;38441;52.894;6.040;2022-09-12T22:59:40;19.70;99.90
52531;DHT22;38441;52.894;6.040;2022-09-12T23:02:06;20.50;99.90
52531;DHT22;38441;52.894;6.040;2022-09-12T23:04:32;19.10;99.90
52531;DHT22;38441;52.894;6.040;2022-09-12T23:06:58;18.60;99.90
52531;DHT22;38441;52.894;6.040;2022-09-12T23:09:24;20.40;99.90
52531;DHT22;38441;52.894;6.040;2022-09-12T23:11:50;19.60;99.90
52531;DHT22;38441;52.894;6.040;2022-09-12T23:14:16;19.60;99.90
52531;DHT22;38441;52.894;6.040;2022-09-12T23:16:42;19.30;99.90
52531;DHT22;38441;52.894;6.040;2022-09-12T23:19:08;20.40;99.90
52531;DHT22;38441;52.894;6.040;2022-09-12T23:21:33;20.30;99.90
52531;DHT22;38441;52.894;6.040;2022-09-12T23:23:59;19.50;99.90
52531;DHT22;38441;52.894;6.040;2022-09-12T23:26:25;19.20;99.90
52531;DHT22;38441;52.894;6.040;2022-09-12T23:29:03;18.50;99.90
52531;DHT22;38441;52.894;6.040;2022-09-12T23:31:31;18.60;99.90
52531;DHT22;38441;52.894;6.040;2022-09-12T23:33:59;20.50;99.90
52531;DHT22;38441;52.894;6.040;2022-09-12T23:36:28;19.70;99.90
52531;DHT22;38441;52.894;6.040;2022-09-12T23:38:54;20.70;99.90
52531;DHT22;38441;52.894;6.040;2022-09-12T23:41:21;19.80;99.90
52531;DHT22;38441;52.894;6.040;2022-09-12T23:43:47;19.30;99.90
52531;DHT22;38441;52.894;6.040;2022-09-12T23:46:13;19.80;99.90
52531;DHT22;38441;52.894;6.040;2022-09-12T23:48:39;19.70;99.90
52531;DHT22;38441;52.894;6.040;2022-09-12T23:51:05;19.80;99.90
52531;DHT22;38441;52.894;6.040;2022-09-12T23:53:31;17.70;99.90
52531;DHT22;38441;52.894;6.040;2022-09-12T23:55:57;20.10;99.90
52531;DHT22;38441;52.894;6.040;2022-09-12T23:58:24;17.80;99.90
